Tenerife > ESTACION METEOROLÓGICA La Escalona - Vilaflor

DATOS ACTUALES Online

Ultima actulizacion 13 minutos

14.2 ºC

Temperatura

42

Humedad (%)

903.42

Presión (mb)

0

Precipitación (mm)

26.4 O

Viento (Km/h)

DATOS DIARIOS

Temperatura últimas 24 horas (ºC)

Humedad últimas 24 horas (%)

Presión atmosférica últimas 24 horas (mb)

Precipitaciones últimas 23 horas (mm)

Viento últimas 24 horas (Km/h)

Hora Temperatura (°C) ºC Precipitación (mm) mm Presión (mb) mb Humedad (%) % Viento (Km/h) km/h
19 - 11:00 14.5 4.5 903 59 14.8 O
19 - 12:00 14.7 4.5 903 50 21.4 SO
19 - 13:00 15.2 4.5 902 54 22.1 SO
19 - 14:00 15.7 4.5 902 50 18.6 SO
19 - 15:00 14.6 4.5 901 80 21.5 SO
19 - 16:00 16.7 4.5 901 38 9.5 SO
19 - 17:00 15.8 4.5 901 33 12.5 O
19 - 18:00 14.7 4.5 902 38 6 O
19 - 19:00 14.5 4.5 902 34 16.7 O
19 - 20:00 13.1 4.5 903 39 22.6 NO
19 - 21:00 12.6 4.5 903 39 21.8 NO
19 - 22:00 12 4.5 903 42 29 NO
19 - 23:00 12.6 4.5 903 47 33.3 NO
20 - 00:00 12.2 0 903 52 27.3 NO
20 - 01:00 11.6 0 902 55 31.4 NO
20 - 02:00 11.4 0 902 57 31.6 NO
20 - 03:00 11.2 0 902 59 39.2 NO
20 - 04:00 11.1 0 902 61 28.8 NO
20 - 05:00 11 0 901 61 29.4 NO
20 - 06:00 11.3 0 901 58 27.3 NO
20 - 07:00 11.5 0 902 54 31.7 NO
20 - 08:00 11.9 0 902 50 25.2 NO
20 - 09:00 13.2 0 903 45 23.7 NO
20 - 10:00 14.2 0 903 42 26.4 O
20 - 11:00
Apalmet utiliza cookies propias y de terceros para mejorar la usabilidad y la experiencia web. Política de cookies.